Hauptseite
METAR-TAF:

METAR-TAF

Flughäfen :

Flughafen Paderborn/Lippstadt

Paderborn-Lippstadt, Deutschland

Breite: 51-37N, Länge: 008-37E, Höhe: 213 m

Beobachtung

Neuester Wetterbericht von vor 26 Minuten, um 22:50 UTC
Wind 4 kt aus Ost/Südost
Temperatur 2°C
Luftfeuchtigkeit 87%
Luftdruck 1001 hPa
Sichtweite 10 km oder mehr
keine Wolken unter 1500 m und keine Kumulonimbus oder Gewitterwolken

METAR: EDLP 122250Z 12004KT CAVOK 02/M00 Q1001

Zeit: 00:16 (23:16 UTC)

Prognose

Neuester Wetterbericht von vor 6 Stunden und 16 Minuten, um 17:00 UTC
Gültige Prognose vom 12 um 18 UTC bis 13 um 18 UTC
Wind 10 kt aus Süd
Sichtweite 10 km oder mehr
Aufgelockert bewölkt in der Höhe von 3000 ft

TAF: EDLP 121700Z 1218/1318 19010KT 9999 SCT030

Wetterbeobachtungen und Prognosen von mehr als 4000 Flughäfen (METAR und TAF Bericht).

Die verfügbaren Stationen werden durch gelbe und rote Markierungen auf der Karte dargestellt.

Führen Sie die Maus auf sie, um den Namen der Station zu sehen.

Darauf klicken, um die Beobachtung von Wetterbeobachtungen und Prognosen zu sehen.

Um die Karte zu ändern : klicken Sie auf den grünen Tasten mit einem schwarzen Kreuz Zum Vergrößern, auf den grünen Button mit einem Gedankenstrich zu verkleinern, oder auf die grünen Pfeile für benachbarte Karten.


METAR-TAF: